sensor_id;sensor_type;location;lat;lon;timestamp;P1;durP1;ratioP1;P2;durP2;ratioP2
64597;SDS011;51004;54.692;9.332;2023-05-08T00:01:17;10.38;;;3.40;;
64597;SDS011;51004;54.692;9.332;2023-05-08T00:03:43;8.85;;;3.40;;
64597;SDS011;51004;54.692;9.332;2023-05-08T00:06:09;7.45;;;3.83;;
64597;SDS011;51004;54.692;9.332;2023-05-08T00:08:35;5.70;;;2.95;;
64597;SDS011;51004;54.692;9.332;2023-05-08T00:11:01;7.53;;;4.13;;
64597;SDS011;51004;54.692;9.332;2023-05-08T00:13:27;5.50;;;3.67;;
64597;SDS011;51004;54.692;9.332;2023-05-08T00:15:53;8.65;;;3.47;;
64597;SDS011;51004;54.692;9.332;2023-05-08T00:18:19;6.97;;;3.40;;
64597;SDS011;51004;54.692;9.332;2023-05-08T00:20:45;6.18;;;3.40;;
64597;SDS011;51004;54.692;9.332;2023-05-08T00:23:11;5.28;;;3.20;;
64597;SDS011;51004;54.692;9.332;2023-05-08T00:25:37;6.78;;;3.97;;
64597;SDS011;51004;54.692;9.332;2023-05-08T00:28:03;4.63;;;3.20;;
64597;SDS011;51004;54.692;9.332;2023-05-08T00:30:29;5.50;;;3.38;;
64597;SDS011;51004;54.692;9.332;2023-05-08T00:32:55;4.47;;;3.13;;
64597;SDS011;51004;54.692;9.332;2023-05-08T00:35:21;6.75;;;3.35;;
64597;SDS011;51004;54.692;9.332;2023-05-08T00:37:47;4.38;;;3.25;;
64597;SDS011;51004;54.692;9.332;2023-05-08T00:40:13;6.30;;;3.35;;
64597;SDS011;51004;54.692;9.332;2023-05-08T00:42:39;6.85;;;3.58;;
64597;SDS011;51004;54.692;9.332;2023-05-08T00:45:06;6.82;;;3.20;;
64597;SDS011;51004;54.692;9.332;2023-05-08T00:47:32;8.35;;;3.67;;
64597;SDS011;51004;54.692;9.332;2023-05-08T00:49:59;6.43;;;3.33;;
64597;SDS011;51004;54.692;9.332;2023-05-08T00:52:26;4.35;;;2.95;;
64597;SDS011;51004;54.692;9.332;2023-05-08T00:54:52;4.60;;;3.15;;
64597;SDS011;51004;54.692;9.332;2023-05-08T00:57:19;5.47;;;3.45;;
64597;SDS011;51004;54.692;9.332;2023-05-08T00:59:45;7.70;;;3.38;;
64597;SDS011;51004;54.692;9.332;2023-05-08T01:02:12;4.28;;;2.95;;
64597;SDS011;51004;54.692;9.332;2023-05-08T01:04:38;3.60;;;2.70;;
64597;SDS011;51004;54.692;9.332;2023-05-08T01:07:05;4.22;;;2.88;;
64597;SDS011;51004;54.692;9.332;2023-05-08T01:09:31;4.03;;;3.25;;
64597;SDS011;51004;54.692;9.332;2023-05-08T01:19:58;5.53;;;2.78;;
64597;SDS011;51004;54.692;9.332;2023-05-08T01:32:39;5.40;;;3.03;;
64597;SDS011;51004;54.692;9.332;2023-05-08T01:35:17;4.97;;;2.92;;
64597;SDS011;51004;54.692;9.332;2023-05-08T01:40:32;5.60;;;3.25;;
64597;SDS011;51004;54.692;9.332;2023-05-08T01:43:09;4.50;;;2.88;;
64597;SDS011;51004;54.692;9.332;2023-05-08T01:45:38;3.65;;;2.95;;
64597;SDS011;51004;54.692;9.332;2023-05-08T01:48:09;3.92;;;3.05;;
64597;SDS011;51004;54.692;9.332;2023-05-08T01:50:37;4.38;;;2.97;;
64597;SDS011;51004;54.692;9.332;2023-05-08T01:53:23;3.90;;;2.92;;
64597;SDS011;51004;54.692;9.332;2023-05-08T01:55:52;4.72;;;3.25;;
64597;SDS011;51004;54.692;9.332;2023-05-08T01:58:20;4.07;;;2.97;;
64597;SDS011;51004;54.692;9.332;2023-05-08T02:00:48;4.50;;;2.92;;
64597;SDS011;51004;54.692;9.332;2023-05-08T02:03:15;6.13;;;3.03;;
64597;SDS011;51004;54.692;9.332;2023-05-08T02:05:42;4.53;;;2.90;;
64597;SDS011;51004;54.692;9.332;2023-05-08T02:08:09;4.75;;;3.05;;
64597;SDS011;51004;54.692;9.332;2023-05-08T02:10:36;6.00;;;3.20;;
64597;SDS011;51004;54.692;9.332;2023-05-08T02:13:03;4.47;;;3.10;;
64597;SDS011;51004;54.692;9.332;2023-05-08T02:15:29;5.95;;;3.20;;
64597;SDS011;51004;54.692;9.332;2023-05-08T02:17:59;4.10;;;3.10;;
64597;SDS011;51004;54.692;9.332;2023-05-08T02:20:27;5.78;;;2.80;;
64597;SDS011;51004;54.692;9.332;2023-05-08T02:22:53;7.05;;;3.47;;
64597;SDS011;51004;54.692;9.332;2023-05-08T02:25:19;4.57;;;3.42;;
64597;SDS011;51004;54.692;9.332;2023-05-08T02:27:46;5.00;;;3.10;;
64597;SDS011;51004;54.692;9.332;2023-05-08T02:30:13;4.57;;;2.92;;
64597;SDS011;51004;54.692;9.332;2023-05-08T02:32:44;3.78;;;2.90;;
64597;SDS011;51004;54.692;9.332;2023-05-08T02:35:17;3.65;;;3.03;;
64597;SDS011;51004;54.692;9.332;2023-05-08T02:37:44;7.93;;;3.47;;
64597;SDS011;51004;54.692;9.332;2023-05-08T02:40:10;3.70;;;2.88;;
64597;SDS011;51004;54.692;9.332;2023-05-08T02:42:37;5.68;;;3.42;;
64597;SDS011;51004;54.692;9.332;2023-05-08T02:45:04;4.75;;;3.13;;
64597;SDS011;51004;54.692;9.332;2023-05-08T02:47:38;5.28;;;2.90;;
64597;SDS011;51004;54.692;9.332;2023-05-08T02:50:08;5.45;;;3.50;;
64597;SDS011;51004;54.692;9.332;2023-05-08T02:52:41;5.28;;;3.30;;
64597;SDS011;51004;54.692;9.332;2023-05-08T03:00:22;4.25;;;2.90;;
64597;SDS011;51004;54.692;9.332;2023-05-08T03:02:53;3.28;;;2.80;;
64597;SDS011;51004;54.692;9.332;2023-05-08T03:05:31;5.63;;;2.95;;
64597;SDS011;51004;54.692;9.332;2023-05-08T03:07:58;6.95;;;3.30;;
64597;SDS011;51004;54.692;9.332;2023-05-08T03:10:28;14.77;;;3.20;;
64597;SDS011;51004;54.692;9.332;2023-05-08T03:12:56;5.88;;;3.33;;
64597;SDS011;51004;54.692;9.332;2023-05-08T03:17:56;6.70;;;3.10;;
64597;SDS011;51004;54.692;9.332;2023-05-08T03:20:23;4.05;;;2.72;;
64597;SDS011;51004;54.692;9.332;2023-05-08T03:22:52;4.93;;;3.25;;
64597;SDS011;51004;54.692;9.332;2023-05-08T03:25:21;4.72;;;3.17;;
64597;SDS011;51004;54.692;9.332;2023-05-08T03:27:47;4.00;;;3.40;;
64597;SDS011;51004;54.692;9.332;2023-05-08T03:30:13;5.47;;;3.80;;
64597;SDS011;51004;54.692;9.332;2023-05-08T03:32:40;4.95;;;3.05;;
64597;SDS011;51004;54.692;9.332;2023-05-08T03:35:07;6.22;;;3.28;;
64597;SDS011;51004;54.692;9.332;2023-05-08T03:37:34;5.57;;;2.72;;
64597;SDS011;51004;54.692;9.332;2023-05-08T03:40:07;4.80;;;3.20;;
64597;SDS011;51004;54.692;9.332;2023-05-08T03:42:33;5.68;;;3.30;;
64597;SDS011;51004;54.692;9.332;2023-05-08T03:45:00;4.25;;;3.40;;
64597;SDS011;51004;54.692;9.332;2023-05-08T03:47:27;5.75;;;3.40;;
64597;SDS011;51004;54.692;9.332;2023-05-08T03:49:54;3.80;;;2.67;;
64597;SDS011;51004;54.692;9.332;2023-05-08T03:52:20;3.65;;;3.05;;
64597;SDS011;51004;54.692;9.332;2023-05-08T03:54:46;4.43;;;3.15;;
64597;SDS011;51004;54.692;9.332;2023-05-08T03:57:12;3.88;;;2.60;;
64597;SDS011;51004;54.692;9.332;2023-05-08T03:59:43;4.28;;;2.70;;
64597;SDS011;51004;54.692;9.332;2023-05-08T04:02:14;3.20;;;2.85;;
64597;SDS011;51004;54.692;9.332;2023-05-08T04:04:43;4.25;;;2.78;;
64597;SDS011;51004;54.692;9.332;2023-05-08T04:15:23;6.13;;;2.97;;
64597;SDS011;51004;54.692;9.332;2023-05-08T04:17:52;4.38;;;2.80;;
64597;SDS011;51004;54.692;9.332;2023-05-08T04:20:20;3.90;;;2.70;;
64597;SDS011;51004;54.692;9.332;2023-05-08T04:22:47;4.65;;;2.60;;
64597;SDS011;51004;54.692;9.332;2023-05-08T04:25:15;3.05;;;2.58;;
64597;SDS011;51004;54.692;9.332;2023-05-08T04:27:42;6.32;;;3.45;;
64597;SDS011;51004;54.692;9.332;2023-05-08T04:30:09;3.42;;;2.50;;
64597;SDS011;51004;54.692;9.332;2023-05-08T04:32:35;3.88;;;2.50;;
64597;SDS011;51004;54.692;9.332;2023-05-08T04:35:02;6.80;;;2.38;;
64597;SDS011;51004;54.692;9.332;2023-05-08T04:37:31;5.47;;;2.90;;
64597;SDS011;51004;54.692;9.332;2023-05-08T04:39:58;4.70;;;2.90;;
64597;SDS011;51004;54.692;9.332;2023-05-08T04:42:24;5.90;;;2.60;;
64597;SDS011;51004;54.692;9.332;2023-05-08T04:44:53;4.75;;;3.08;;
64597;SDS011;51004;54.692;9.332;2023-05-08T04:47:19;3.28;;;2.78;;
64597;SDS011;51004;54.692;9.332;2023-05-08T04:49:45;5.07;;;2.72;;
64597;SDS011;51004;54.692;9.332;2023-05-08T04:52:11;3.90;;;2.97;;
64597;SDS011;51004;54.692;9.332;2023-05-08T04:54:37;3.38;;;2.63;;
64597;SDS011;51004;54.692;9.332;2023-05-08T04:57:03;4.40;;;2.70;;
64597;SDS011;51004;54.692;9.332;2023-05-08T04:59:31;4.32;;;2.65;;
64597;SDS011;51004;54.692;9.332;2023-05-08T05:01:57;5.60;;;3.40;;
64597;SDS011;51004;54.692;9.332;2023-05-08T05:04:26;3.70;;;2.67;;
64597;SDS011;51004;54.692;9.332;2023-05-08T05:06:52;7.30;;;2.60;;
64597;SDS011;51004;54.692;9.332;2023-05-08T05:09:18;3.47;;;3.10;;
64597;SDS011;51004;54.692;9.332;2023-05-08T05:11:44;5.68;;;3.30;;
64597;SDS011;51004;54.692;9.332;2023-05-08T05:14:10;4.03;;;3.08;;
64597;SDS011;51004;54.692;9.332;2023-05-08T05:16:36;4.20;;;2.88;;
64597;SDS011;51004;54.692;9.332;2023-05-08T05:19:02;4.05;;;3.20;;
64597;SDS011;51004;54.692;9.332;2023-05-08T05:21:28;3.67;;;2.53;;
64597;SDS011;51004;54.692;9.332;2023-05-08T05:23:54;3.38;;;2.60;;
64597;SDS011;51004;54.692;9.332;2023-05-08T05:26:20;7.07;;;2.95;;
64597;SDS011;51004;54.692;9.332;2023-05-08T05:28:47;4.03;;;2.70;;
64597;SDS011;51004;54.692;9.332;2023-05-08T05:31:13;3.42;;;2.90;;
64597;SDS011;51004;54.692;9.332;2023-05-08T05:33:39;3.00;;;2.38;;
64597;SDS011;51004;54.692;9.332;2023-05-08T05:36:06;4.05;;;2.95;;
64597;SDS011;51004;54.692;9.332;2023-05-08T05:38:32;3.78;;;3.15;;
64597;SDS011;51004;54.692;9.332;2023-05-08T05:40:58;5.90;;;3.58;;
64597;SDS011;51004;54.692;9.332;2023-05-08T05:43:24;7.35;;;3.53;;
64597;SDS011;51004;54.692;9.332;2023-05-08T05:45:50;3.47;;;2.83;;
64597;SDS011;51004;54.692;9.332;2023-05-08T05:48:16;3.63;;;2.95;;
64597;SDS011;51004;54.692;9.332;2023-05-08T05:50:42;4.07;;;3.40;;
64597;SDS011;51004;54.692;9.332;2023-05-08T05:53:08;5.00;;;3.00;;
64597;SDS011;51004;54.692;9.332;2023-05-08T05:55:34;5.70;;;3.33;;
64597;SDS011;51004;54.692;9.332;2023-05-08T05:58:00;4.95;;;3.25;;
64597;SDS011;51004;54.692;9.332;2023-05-08T06:00:27;5.65;;;3.47;;
64597;SDS011;51004;54.692;9.332;2023-05-08T06:02:54;3.90;;;3.25;;
64597;SDS011;51004;54.692;9.332;2023-05-08T06:05:21;3.33;;;2.90;;
64597;SDS011;51004;54.692;9.332;2023-05-08T06:07:47;3.97;;;2.83;;
64597;SDS011;51004;54.692;9.332;2023-05-08T06:10:13;4.07;;;3.25;;
64597;SDS011;51004;54.692;9.332;2023-05-08T06:12:39;4.85;;;3.22;;
64597;SDS011;51004;54.692;9.332;2023-05-08T06:15:06;3.88;;;3.25;;
64597;SDS011;51004;54.692;9.332;2023-05-08T06:17:32;6.00;;;3.60;;
64597;SDS011;51004;54.692;9.332;2023-05-08T06:19:58;4.13;;;2.97;;
64597;SDS011;51004;54.692;9.332;2023-05-08T06:22:24;4.20;;;3.75;;
64597;SDS011;51004;54.692;9.332;2023-05-08T06:24:50;4.75;;;3.35;;
64597;SDS011;51004;54.692;9.332;2023-05-08T06:27:18;5.65;;;3.28;;
64597;SDS011;51004;54.692;9.332;2023-05-08T06:29:44;4.47;;;2.88;;
64597;SDS011;51004;54.692;9.332;2023-05-08T06:32:11;5.32;;;3.47;;
64597;SDS011;51004;54.692;9.332;2023-05-08T06:34:37;4.03;;;3.30;;
64597;SDS011;51004;54.692;9.332;2023-05-08T06:37:03;4.57;;;3.53;;
64597;SDS011;51004;54.692;9.332;2023-05-08T06:39:29;3.40;;;2.95;;
64597;SDS011;51004;54.692;9.332;2023-05-08T06:41:55;3.70;;;3.22;;
64597;SDS011;51004;54.692;9.332;2023-05-08T06:44:21;5.60;;;3.55;;
64597;SDS011;51004;54.692;9.332;2023-05-08T06:46:47;6.07;;;3.35;;
64597;SDS011;51004;54.692;9.332;2023-05-08T06:49:13;4.10;;;3.40;;
64597;SDS011;51004;54.692;9.332;2023-05-08T06:51:39;5.05;;;3.40;;
64597;SDS011;51004;54.692;9.332;2023-05-08T06:54:05;4.50;;;3.38;;
64597;SDS011;51004;54.692;9.332;2023-05-08T06:56:32;3.90;;;3.28;;
64597;SDS011;51004;54.692;9.332;2023-05-08T06:58:59;5.22;;;3.60;;
64597;SDS011;51004;54.692;9.332;2023-05-08T07:01:25;4.30;;;3.72;;
64597;SDS011;51004;54.692;9.332;2023-05-08T07:03:51;4.75;;;3.92;;
64597;SDS011;51004;54.692;9.332;2023-05-08T07:06:17;4.72;;;3.40;;
64597;SDS011;51004;54.692;9.332;2023-05-08T07:08:43;6.47;;;3.67;;
64597;SDS011;51004;54.692;9.332;2023-05-08T07:11:09;4.65;;;3.75;;
64597;SDS011;51004;54.692;9.332;2023-05-08T07:13:35;4.63;;;3.28;;
64597;SDS011;51004;54.692;9.332;2023-05-08T07:16:01;5.32;;;3.25;;
64597;SDS011;51004;54.692;9.332;2023-05-08T07:18:29;4.13;;;3.33;;
64597;SDS011;51004;54.692;9.332;2023-05-08T07:20:55;5.20;;;3.42;;
64597;SDS011;51004;54.692;9.332;2023-05-08T07:23:21;4.30;;;3.75;;
64597;SDS011;51004;54.692;9.332;2023-05-08T07:25:47;6.45;;;3.92;;
64597;SDS011;51004;54.692;9.332;2023-05-08T07:28:13;4.85;;;3.40;;
64597;SDS011;51004;54.692;9.332;2023-05-08T07:30:39;5.97;;;3.95;;
64597;SDS011;51004;54.692;9.332;2023-05-08T07:33:05;4.10;;;3.50;;
64597;SDS011;51004;54.692;9.332;2023-05-08T07:35:31;5.60;;;3.80;;
64597;SDS011;51004;54.692;9.332;2023-05-08T07:37:57;6.68;;;3.90;;
64597;SDS011;51004;54.692;9.332;2023-05-08T07:40:23;4.95;;;4.10;;
64597;SDS011;51004;54.692;9.332;2023-05-08T07:42:49;5.05;;;4.10;;
64597;SDS011;51004;54.692;9.332;2023-05-08T07:45:15;5.55;;;3.67;;
64597;SDS011;51004;54.692;9.332;2023-05-08T07:47:48;7.68;;;3.63;;
64597;SDS011;51004;54.692;9.332;2023-05-08T07:50:14;5.88;;;4.30;;
64597;SDS011;51004;54.692;9.332;2023-05-08T07:52:40;5.03;;;4.20;;
64597;SDS011;51004;54.692;9.332;2023-05-08T07:55:06;5.53;;;3.47;;
64597;SDS011;51004;54.692;9.332;2023-05-08T07:57:39;7.47;;;3.92;;
64597;SDS011;51004;54.692;9.332;2023-05-08T08:00:06;5.10;;;4.05;;
64597;SDS011;51004;54.692;9.332;2023-05-08T08:02:32;8.07;;;4.32;;
64597;SDS011;51004;54.692;9.332;2023-05-08T08:04:58;5.35;;;4.05;;
64597;SDS011;51004;54.692;9.332;2023-05-08T08:07:25;4.95;;;4.45;;
64597;SDS011;51004;54.692;9.332;2023-05-08T08:09:51;5.55;;;4.47;;
64597;SDS011;51004;54.692;9.332;2023-05-08T08:12:17;4.72;;;4.32;;
64597;SDS011;51004;54.692;9.332;2023-05-08T08:14:44;8.98;;;5.03;;
64597;SDS011;51004;54.692;9.332;2023-05-08T08:17:10;5.15;;;4.65;;
64597;SDS011;51004;54.692;9.332;2023-05-08T08:19:36;4.97;;;4.43;;
64597;SDS011;51004;54.692;9.332;2023-05-08T08:22:02;6.07;;;5.10;;
64597;SDS011;51004;54.692;9.332;2023-05-08T08:24:28;4.82;;;4.32;;
64597;SDS011;51004;54.692;9.332;2023-05-08T08:26:54;5.65;;;4.68;;
64597;SDS011;51004;54.692;9.332;2023-05-08T08:29:20;5.38;;;4.88;;
64597;SDS011;51004;54.692;9.332;2023-05-08T08:31:46;6.78;;;4.07;;
64597;SDS011;51004;54.692;9.332;2023-05-08T08:34:12;4.80;;;4.30;;
64597;SDS011;51004;54.692;9.332;2023-05-08T08:36:38;5.82;;;4.10;;
64597;SDS011;51004;54.692;9.332;2023-05-08T08:39:04;4.22;;;3.83;;
64597;SDS011;51004;54.692;9.332;2023-05-08T08:41:31;7.10;;;3.97;;
64597;SDS011;51004;54.692;9.332;2023-05-08T08:43:57;5.88;;;3.80;;
64597;SDS011;51004;54.692;9.332;2023-05-08T08:46:24;5.45;;;4.30;;
64597;SDS011;51004;54.692;9.332;2023-05-08T08:48:50;4.10;;;3.60;;
64597;SDS011;51004;54.692;9.332;2023-05-08T08:51:22;4.40;;;4.00;;
64597;SDS011;51004;54.692;9.332;2023-05-08T08:53:50;5.97;;;3.97;;
64597;SDS011;51004;54.692;9.332;2023-05-08T08:56:20;5.20;;;4.70;;
64597;SDS011;51004;54.692;9.332;2023-05-08T08:58:47;7.03;;;5.00;;
64597;SDS011;51004;54.692;9.332;2023-05-08T09:01:15;4.13;;;3.50;;
64597;SDS011;51004;54.692;9.332;2023-05-08T09:03:42;5.75;;;4.20;;
64597;SDS011;51004;54.692;9.332;2023-05-08T09:06:08;5.50;;;4.25;;
64597;SDS011;51004;54.692;9.332;2023-05-08T09:08:34;5.05;;;3.85;;
64597;SDS011;51004;54.692;9.332;2023-05-08T09:11:01;4.72;;;4.25;;
64597;SDS011;51004;54.692;9.332;2023-05-08T09:13:27;7.15;;;4.22;;
64597;SDS011;51004;54.692;9.332;2023-05-08T09:15:53;6.10;;;4.65;;
64597;SDS011;51004;54.692;9.332;2023-05-08T09:18:20;4.68;;;4.28;;
64597;SDS011;51004;54.692;9.332;2023-05-08T09:20:46;4.80;;;4.28;;
64597;SDS011;51004;54.692;9.332;2023-05-08T09:23:12;8.35;;;4.43;;
64597;SDS011;51004;54.692;9.332;2023-05-08T09:25:45;4.80;;;4.07;;
64597;SDS011;51004;54.692;9.332;2023-05-08T09:28:18;4.50;;;3.33;;
64597;SDS011;51004;54.692;9.332;2023-05-08T09:30:51;7.43;;;4.00;;
64597;SDS011;51004;54.692;9.332;2023-05-08T09:33:17;3.97;;;3.55;;
64597;SDS011;51004;54.692;9.332;2023-05-08T09:35:44;5.28;;;4.30;;
64597;SDS011;51004;54.692;9.332;2023-05-08T09:41:30;3.83;;;3.28;;
64597;SDS011;51004;54.692;9.332;2023-05-08T09:44:03;4.35;;;3.90;;
64597;SDS011;51004;54.692;9.332;2023-05-08T09:46:29;4.35;;;3.75;;
64597;SDS011;51004;54.692;9.332;2023-05-08T09:48:57;3.50;;;3.05;;
64597;SDS011;51004;54.692;9.332;2023-05-08T09:51:27;4.63;;;3.22;;
64597;SDS011;51004;54.692;9.332;2023-05-08T09:53:57;4.07;;;3.28;;
64597;SDS011;51004;54.692;9.332;2023-05-08T09:56:36;5.50;;;3.75;;
64597;SDS011;51004;54.692;9.332;2023-05-08T09:59:03;5.22;;;3.28;;
64597;SDS011;51004;54.692;9.332;2023-05-08T10:01:34;6.00;;;3.92;;
64597;SDS011;51004;54.692;9.332;2023-05-08T10:04:00;4.63;;;3.33;;
64597;SDS011;51004;54.692;9.332;2023-05-08T10:06:28;5.55;;;3.22;;
64597;SDS011;51004;54.692;9.332;2023-05-08T10:09:13;4.10;;;3.20;;
64597;SDS011;51004;54.692;9.332;2023-05-08T10:11:40;5.88;;;3.22;;
64597;SDS011;51004;54.692;9.332;2023-05-08T10:14:06;4.20;;;2.67;;
64597;SDS011;51004;54.692;9.332;2023-05-08T10:16:51;6.28;;;3.30;;
64597;SDS011;51004;54.692;9.332;2023-05-08T10:19:18;4.30;;;3.47;;
64597;SDS011;51004;54.692;9.332;2023-05-08T10:21:48;4.15;;;3.50;;
64597;SDS011;51004;54.692;9.332;2023-05-08T10:24:15;4.20;;;3.20;;
64597;SDS011;51004;54.692;9.332;2023-05-08T10:26:43;5.03;;;3.10;;
64597;SDS011;51004;54.692;9.332;2023-05-08T10:29:16;4.70;;;3.05;;
64597;SDS011;51004;54.692;9.332;2023-05-08T10:31:43;5.13;;;3.08;;
64597;SDS011;51004;54.692;9.332;2023-05-08T10:34:17;3.58;;;2.92;;
64597;SDS011;51004;54.692;9.332;2023-05-08T10:36:43;3.47;;;2.80;;
64597;SDS011;51004;54.692;9.332;2023-05-08T10:39:10;3.05;;;2.63;;
64597;SDS011;51004;54.692;9.332;2023-05-08T10:41:38;3.08;;;2.30;;
64597;SDS011;51004;54.692;9.332;2023-05-08T10:44:04;4.85;;;3.50;;
64597;SDS011;51004;54.692;9.332;2023-05-08T10:46:45;3.08;;;2.55;;
64597;SDS011;51004;54.692;9.332;2023-05-08T10:54:17;3.63;;;2.42;;
64597;SDS011;51004;54.692;9.332;2023-05-08T10:56:45;5.20;;;2.50;;
64597;SDS011;51004;54.692;9.332;2023-05-08T10:59:17;4.07;;;2.47;;
64597;SDS011;51004;54.692;9.332;2023-05-08T11:01:47;3.28;;;2.47;;
64597;SDS011;51004;54.692;9.332;2023-05-08T11:04:20;4.47;;;2.83;;
64597;SDS011;51004;54.692;9.332;2023-05-08T11:06:49;3.03;;;2.58;;
64597;SDS011;51004;54.692;9.332;2023-05-08T11:09:19;3.80;;;2.28;;
64597;SDS011;51004;54.692;9.332;2023-05-08T11:11:50;2.20;;;1.95;;
64597;SDS011;51004;54.692;9.332;2023-05-08T11:14:17;2.75;;;2.20;;
64597;SDS011;51004;54.692;9.332;2023-05-08T11:19:23;3.00;;;2.20;;
64597;SDS011;51004;54.692;9.332;2023-05-08T11:24:38;3.95;;;1.83;;
64597;SDS011;51004;54.692;9.332;2023-05-08T11:27:05;3.28;;;2.00;;
64597;SDS011;51004;54.692;9.332;2023-05-08T11:29:31;2.58;;;1.73;;
64597;SDS011;51004;54.692;9.332;2023-05-08T11:31:58;2.35;;;1.80;;
64597;SDS011;51004;54.692;9.332;2023-05-08T11:37:09;5.72;;;3.03;;
64597;SDS011;51004;54.692;9.332;2023-05-08T11:39:35;2.95;;;2.00;;
64597;SDS011;51004;54.692;9.332;2023-05-08T11:42:43;2.10;;;1.80;;
64597;SDS011;51004;54.692;9.332;2023-05-08T11:47:30;3.25;;;1.98;;
64597;SDS011;51004;54.692;9.332;2023-05-08T11:49:57;3.47;;;2.10;;
64597;SDS011;51004;54.692;9.332;2023-05-08T11:52:23;3.80;;;2.42;;
64597;SDS011;51004;54.692;9.332;2023-05-08T11:54:50;2.55;;;1.98;;
64597;SDS011;51004;54.692;9.332;2023-05-08T11:57:16;4.72;;;1.98;;
64597;SDS011;51004;54.692;9.332;2023-05-08T11:59:42;2.28;;;1.83;;
64597;SDS011;51004;54.692;9.332;2023-05-08T12:02:08;3.78;;;2.05;;
64597;SDS011;51004;54.692;9.332;2023-05-08T12:04:44;3.22;;;2.33;;
64597;SDS011;51004;54.692;9.332;2023-05-08T12:07:10;3.17;;;2.40;;
64597;SDS011;51004;54.692;9.332;2023-05-08T12:09:36;2.67;;;2.05;;
64597;SDS011;51004;54.692;9.332;2023-05-08T12:12:02;3.83;;;2.15;;
64597;SDS011;51004;54.692;9.332;2023-05-08T12:14:28;2.30;;;1.70;;
64597;SDS011;51004;54.692;9.332;2023-05-08T12:16:54;3.63;;;1.83;;
64597;SDS011;51004;54.692;9.332;2023-05-08T12:19:20;2.30;;;1.98;;
64597;SDS011;51004;54.692;9.332;2023-05-08T12:21:47;2.58;;;1.77;;
64597;SDS011;51004;54.692;9.332;2023-05-08T12:24:14;2.67;;;1.80;;
64597;SDS011;51004;54.692;9.332;2023-05-08T12:26:41;2.50;;;1.73;;
64597;SDS011;51004;54.692;9.332;2023-05-08T12:29:07;2.10;;;1.45;;
64597;SDS011;51004;54.692;9.332;2023-05-08T12:31:33;4.28;;;1.60;;
64597;SDS011;51004;54.692;9.332;2023-05-08T12:34:01;4.47;;;1.60;;
64597;SDS011;51004;54.692;9.332;2023-05-08T12:36:27;3.72;;;1.70;;
64597;SDS011;51004;54.692;9.332;2023-05-08T12:39:07;4.00;;;1.90;;
64597;SDS011;51004;54.692;9.332;2023-05-08T12:41:33;4.28;;;1.75;;
64597;SDS011;51004;54.692;9.332;2023-05-08T12:43:59;2.90;;;1.80;;
64597;SDS011;51004;54.692;9.332;2023-05-08T12:46:25;2.78;;;2.05;;
64597;SDS011;51004;54.692;9.332;2023-05-08T12:48:59;3.45;;;1.80;;
64597;SDS011;51004;54.692;9.332;2023-05-08T12:51:28;1.73;;;1.33;;
64597;SDS011;51004;54.692;9.332;2023-05-08T12:53:55;2.30;;;1.50;;
64597;SDS011;51004;54.692;9.332;2023-05-08T12:56:21;4.95;;;1.90;;
64597;SDS011;51004;54.692;9.332;2023-05-08T12:58:47;3.28;;;1.65;;
64597;SDS011;51004;54.692;9.332;2023-05-08T13:01:13;2.25;;;1.75;;
64597;SDS011;51004;54.692;9.332;2023-05-08T13:03:40;3.22;;;1.55;;
64597;SDS011;51004;54.692;9.332;2023-05-08T13:06:24;2.05;;;1.30;;
64597;SDS011;51004;54.692;9.332;2023-05-08T13:08:53;3.05;;;1.52;;
64597;SDS011;51004;54.692;9.332;2023-05-08T13:11:29;3.30;;;1.83;;
64597;SDS011;51004;54.692;9.332;2023-05-08T13:13:56;5.40;;;1.67;;
64597;SDS011;51004;54.692;9.332;2023-05-08T13:16:22;2.90;;;1.45;;
64597;SDS011;51004;54.692;9.332;2023-05-08T13:18:48;4.10;;;1.60;;
64597;SDS011;51004;54.692;9.332;2023-05-08T13:21:13;5.97;;;1.98;;
64597;SDS011;51004;54.692;9.332;2023-05-08T13:23:40;2.78;;;1.77;;
64597;SDS011;51004;54.692;9.332;2023-05-08T13:26:07;3.75;;;2.13;;
64597;SDS011;51004;54.692;9.332;2023-05-08T13:28:33;2.20;;;1.60;;
64597;SDS011;51004;54.692;9.332;2023-05-08T13:30:59;2.63;;;1.80;;
64597;SDS011;51004;54.692;9.332;2023-05-08T13:33:25;2.67;;;1.48;;
64597;SDS011;51004;54.692;9.332;2023-05-08T13:35:51;2.35;;;1.70;;
64597;SDS011;51004;54.692;9.332;2023-05-08T13:38:18;5.28;;;2.03;;
64597;SDS011;51004;54.692;9.332;2023-05-08T13:40:44;3.20;;;1.38;;
64597;SDS011;51004;54.692;9.332;2023-05-08T13:43:10;4.13;;;1.77;;
64597;SDS011;51004;54.692;9.332;2023-05-08T13:45:36;4.13;;;1.55;;
64597;SDS011;51004;54.692;9.332;2023-05-08T13:48:02;4.63;;;1.75;;
64597;SDS011;51004;54.692;9.332;2023-05-08T13:50:28;1.88;;;1.33;;
64597;SDS011;51004;54.692;9.332;2023-05-08T13:52:54;2.72;;;1.40;;
64597;SDS011;51004;54.692;9.332;2023-05-08T13:55:20;2.03;;;1.40;;
64597;SDS011;51004;54.692;9.332;2023-05-08T13:57:46;3.17;;;1.77;;
64597;SDS011;51004;54.692;9.332;2023-05-08T14:00:13;3.00;;;1.50;;
64597;SDS011;51004;54.692;9.332;2023-05-08T14:02:39;4.18;;;1.60;;
64597;SDS011;51004;54.692;9.332;2023-05-08T14:05:05;2.03;;;1.50;;
64597;SDS011;51004;54.692;9.332;2023-05-08T14:07:32;2.55;;;1.77;;
64597;SDS011;51004;54.692;9.332;2023-05-08T14:09:58;2.22;;;1.60;;
64597;SDS011;51004;54.692;9.332;2023-05-08T14:12:24;2.97;;;1.50;;
64597;SDS011;51004;54.692;9.332;2023-05-08T14:14:50;2.38;;;1.50;;
64597;SDS011;51004;54.692;9.332;2023-05-08T14:17:16;6.50;;;1.85;;
64597;SDS011;51004;54.692;9.332;2023-05-08T14:19:42;4.75;;;1.55;;
64597;SDS011;51004;54.692;9.332;2023-05-08T14:22:10;2.42;;;1.60;;
64597;SDS011;51004;54.692;9.332;2023-05-08T14:24:36;4.50;;;1.33;;
64597;SDS011;51004;54.692;9.332;2023-05-08T14:27:02;2.15;;;1.30;;
64597;SDS011;51004;54.692;9.332;2023-05-08T14:29:30;3.30;;;1.40;;
64597;SDS011;51004;54.692;9.332;2023-05-08T14:31:56;4.03;;;2.00;;
64597;SDS011;51004;54.692;9.332;2023-05-08T14:34:22;1.83;;;1.30;;
64597;SDS011;51004;54.692;9.332;2023-05-08T14:36:48;3.35;;;1.42;;
64597;SDS011;51004;54.692;9.332;2023-05-08T14:39:14;3.78;;;1.52;;
64597;SDS011;51004;54.692;9.332;2023-05-08T14:41:40;3.80;;;1.80;;
64597;SDS011;51004;54.692;9.332;2023-05-08T14:44:06;4.50;;;1.50;;
64597;SDS011;51004;54.692;9.332;2023-05-08T14:46:32;3.20;;;2.08;;
64597;SDS011;51004;54.692;9.332;2023-05-08T14:48:59;2.13;;;1.08;;
64597;SDS011;51004;54.692;9.332;2023-05-08T14:51:25;4.03;;;1.60;;
64597;SDS011;51004;54.692;9.332;2023-05-08T14:53:51;4.50;;;1.40;;
64597;SDS011;51004;54.692;9.332;2023-05-08T14:56:17;2.65;;;1.50;;
64597;SDS011;51004;54.692;9.332;2023-05-08T14:58:43;2.75;;;1.65;;
64597;SDS011;51004;54.692;9.332;2023-05-08T15:01:09;2.72;;;1.55;;
64597;SDS011;51004;54.692;9.332;2023-05-08T15:03:35;3.70;;;1.48;;
64597;SDS011;51004;54.692;9.332;2023-05-08T15:06:01;1.98;;;1.55;;
64597;SDS011;51004;54.692;9.332;2023-05-08T15:08:28;4.07;;;1.35;;
64597;SDS011;51004;54.692;9.332;2023-05-08T15:10:55;3.22;;;1.52;;
64597;SDS011;51004;54.692;9.332;2023-05-08T15:13:21;3.13;;;1.42;;
64597;SDS011;51004;54.692;9.332;2023-05-08T15:15:47;4.57;;;1.30;;
64597;SDS011;51004;54.692;9.332;2023-05-08T15:18:13;3.67;;;1.45;;
64597;SDS011;51004;54.692;9.332;2023-05-08T15:20:39;3.80;;;1.70;;
64597;SDS011;51004;54.692;9.332;2023-05-08T15:23:05;2.95;;;1.40;;
64597;SDS011;51004;54.692;9.332;2023-05-08T15:25:31;3.10;;;1.80;;
64597;SDS011;51004;54.692;9.332;2023-05-08T15:27:57;4.97;;;1.90;;
64597;SDS011;51004;54.692;9.332;2023-05-08T15:30:23;2.53;;;1.40;;
64597;SDS011;51004;54.692;9.332;2023-05-08T15:32:49;5.03;;;1.38;;
64597;SDS011;51004;54.692;9.332;2023-05-08T15:35:16;6.97;;;1.40;;
64597;SDS011;51004;54.692;9.332;2023-05-08T15:37:42;2.42;;;1.15;;
64597;SDS011;51004;54.692;9.332;2023-05-08T15:40:08;2.22;;;1.45;;
64597;SDS011;51004;54.692;9.332;2023-05-08T15:42:35;3.33;;;1.25;;
64597;SDS011;51004;54.692;9.332;2023-05-08T15:45:01;2.50;;;1.35;;